createdAt,value
2022-08-07T00:00:28.129Z,99.90
2022-08-07T00:02:57.020Z,99.90
2022-08-07T00:05:26.232Z,99.90
2022-08-07T00:08:00.171Z,99.90
2022-08-07T00:10:31.023Z,99.90
2022-08-07T00:13:23.734Z,99.90
2022-08-07T00:15:54.970Z,99.90
2022-08-07T00:18:25.959Z,99.90
2022-08-07T00:20:57.467Z,99.90
2022-08-07T00:23:32.390Z,99.90
2022-08-07T00:26:13.202Z,99.90
2022-08-07T00:28:56.747Z,99.90
2022-08-07T00:31:38.456Z,99.90
2022-08-07T00:34:10.589Z,99.90
2022-08-07T00:36:43.258Z,99.90
2022-08-07T00:39:16.132Z,99.90
2022-08-07T00:41:53.243Z,99.90
2022-08-07T00:44:23.827Z,99.90
2022-08-07T00:46:55.480Z,99.90
2022-08-07T00:49:24.941Z,99.90
2022-08-07T00:52:12.353Z,99.90
2022-08-07T00:54:41.095Z,99.90
2022-08-07T00:57:10.545Z,99.90
2022-08-07T00:59:41.912Z,99.90
2022-08-07T01:02:20.306Z,99.90
2022-08-07T01:05:00.122Z,99.90
2022-08-07T01:07:30.053Z,99.90
2022-08-07T01:10:06.783Z,99.90
2022-08-07T01:12:54.148Z,99.90
2022-08-07T01:16:00.484Z,99.90
2022-08-07T01:18:17.698Z,99.90
2022-08-07T01:21:06.384Z,99.90
2022-08-07T01:23:51.853Z,99.90
2022-08-07T01:26:26.256Z,99.90
2022-08-07T01:28:56.491Z,99.90
2022-08-07T01:31:37.844Z,99.90
2022-08-07T01:34:14.205Z,99.90
2022-08-07T01:36:52.785Z,99.90
2022-08-07T01:39:40.469Z,99.90
2022-08-07T01:42:37.725Z,99.90
2022-08-07T01:45:15.716Z,99.90
2022-08-07T01:48:20.371Z,99.90
2022-08-07T01:50:42.897Z,99.90
2022-08-07T01:53:20.913Z,99.90
2022-08-07T01:55:57.991Z,99.90
2022-08-07T01:58:33.345Z,99.90
2022-08-07T02:01:58.969Z,99.90
2022-08-07T02:04:04.492Z,99.90
2022-08-07T02:06:35.600Z,99.90
2022-08-07T02:09:11.645Z,99.90
2022-08-07T02:12:17.601Z,99.90
2022-08-07T02:15:00.879Z,99.90
2022-08-07T02:17:51.680Z,99.90
2022-08-07T02:20:23.738Z,99.90
2022-08-07T02:22:57.554Z,99.90
2022-08-07T02:26:10.449Z,99.90
2022-08-07T02:28:25.388Z,99.90
2022-08-07T02:30:58.773Z,99.90
2022-08-07T02:33:41.989Z,99.90
2022-08-07T02:36:30.096Z,99.90
2022-08-07T02:39:17.095Z,99.90
2022-08-07T02:42:01.656Z,99.90
2022-08-07T02:44:34.366Z,99.90
2022-08-07T02:47:06.631Z,99.90
2022-08-07T02:49:58.045Z,99.90
2022-08-07T02:52:33.448Z,99.90
2022-08-07T02:55:15.420Z,99.90
2022-08-07T02:58:02.931Z,99.90
2022-08-07T03:00:35.426Z,99.90
2022-08-07T03:03:07.214Z,99.90
2022-08-07T03:05:47.267Z,99.90
2022-08-07T03:08:18.502Z,99.90
2022-08-07T03:10:56.669Z,99.90
2022-08-07T03:13:39.168Z,99.90
2022-08-07T03:16:27.660Z,99.90
2022-08-07T03:18:58.213Z,99.90
2022-08-07T03:21:27.529Z,99.90
2022-08-07T03:24:20.056Z,99.90
2022-08-07T03:26:58.170Z,99.90
2022-08-07T03:29:37.429Z,99.90
2022-08-07T03:32:13.075Z,99.90
2022-08-07T03:34:47.382Z,99.90
2022-08-07T03:37:37.418Z,99.90
2022-08-07T03:40:16.909Z,99.90
2022-08-07T03:42:46.278Z,99.90
2022-08-07T03:45:30.056Z,99.90
2022-08-07T03:48:10.009Z,99.90
2022-08-07T03:50:43.229Z,99.90
2022-08-07T03:53:50.941Z,99.90
2022-08-07T03:56:32.602Z,99.90
2022-08-07T03:59:12.745Z,99.90
2022-08-07T04:01:47.693Z,99.90
2022-08-07T04:04:22.291Z,99.90
2022-08-07T04:06:58.096Z,99.90
2022-08-07T04:09:45.478Z,99.90
2022-08-07T04:12:27.667Z,99.90
2022-08-07T04:15:00.130Z,99.90
2022-08-07T04:18:31.043Z,99.90
2022-08-07T04:20:22.985Z,99.90
2022-08-07T04:23:01.957Z,99.90
2022-08-07T04:25:40.918Z,99.90
2022-08-07T04:28:13.255Z,99.90
2022-08-07T04:30:55.562Z,99.90
2022-08-07T04:33:31.323Z,99.90
2022-08-07T04:36:06.480Z,99.90
2022-08-07T04:38:35.839Z,99.90
2022-08-07T04:41:05.278Z,99.90
2022-08-07T04:44:11.344Z,99.90
2022-08-07T04:46:39.990Z,99.90
2022-08-07T04:49:40.844Z,99.90
2022-08-07T04:52:18.644Z,99.90
2022-08-07T04:54:55.495Z,99.90
2022-08-07T04:58:09.811Z,99.90
2022-08-07T05:00:30.975Z,99.90
2022-08-07T05:03:31.066Z,99.90
2022-08-07T05:06:19.224Z,99.90
2022-08-07T05:09:00.649Z,99.90
2022-08-07T05:11:57.976Z,99.90
2022-08-07T05:14:56.350Z,99.90
2022-08-07T05:18:00.647Z,99.90
2022-08-07T05:20:12.707Z,99.90
2022-08-07T05:22:43.672Z,99.90
2022-08-07T05:25:36.713Z,99.90
2022-08-07T05:28:20.738Z,99.90
2022-08-07T05:30:52.581Z,99.90
2022-08-07T05:33:22.304Z,99.90
2022-08-07T05:35:51.916Z,99.90
2022-08-07T05:39:01.382Z,99.90
2022-08-07T05:41:15.875Z,99.90
2022-08-07T05:44:08.596Z,99.90
2022-08-07T05:46:40.461Z,99.90
2022-08-07T05:49:14.232Z,99.60
2022-08-07T05:51:46.916Z,97.40
2022-08-07T05:54:31.042Z,96.40
2022-08-07T05:57:10.909Z,94.60
2022-08-07T05:59:55.755Z,94.60
2022-08-07T06:02:32.347Z,92.40
2022-08-07T06:05:06.970Z,90.80
2022-08-07T06:08:14.572Z,89.90
2022-08-07T06:10:27.554Z,87.00
2022-08-07T06:12:58.242Z,81.30
2022-08-07T06:15:39.507Z,80.20
2022-08-07T06:18:14.133Z,79.80
2022-08-07T06:20:50.712Z,78.20
2022-08-07T06:24:38.744Z,76.80
2022-08-07T06:26:31.372Z,76.80
2022-08-07T06:29:03.047Z,77.40
2022-08-07T06:31:49.685Z,75.70
2022-08-07T06:34:24.376Z,77.20
2022-08-07T06:36:58.084Z,78.50
2022-08-07T06:40:18.416Z,80.00
2022-08-07T06:42:33.049Z,79.70
2022-08-07T06:45:19.820Z,81.60
2022-08-07T06:47:57.584Z,81.90
2022-08-07T06:50:36.025Z,81.80
2022-08-07T06:53:49.225Z,79.00
2022-08-07T06:56:03.624Z,76.50
2022-08-07T07:00:12.709Z,75.90
2022-08-07T07:01:42.128Z,75.20
2022-08-07T07:04:27.949Z,73.90
2022-08-07T07:07:19.438Z,71.20
2022-08-07T07:09:57.984Z,70.00
2022-08-07T07:12:36.500Z,68.90
2022-08-07T07:15:24.079Z,66.40
2022-08-07T07:17:59.993Z,63.50
2022-08-07T07:20:36.554Z,64.20
2022-08-07T07:24:08.128Z,65.60
2022-08-07T07:26:33.146Z,65.30
2022-08-07T07:29:38.931Z,64.80
2022-08-07T07:31:51.620Z,64.20
2022-08-07T07:34:30.665Z,63.80
2022-08-07T07:37:14.295Z,64.10
2022-08-07T07:39:57.240Z,66.10
2022-08-07T07:42:32.741Z,65.80
2022-08-07T07:45:03.859Z,64.80
2022-08-07T07:47:52.029Z,64.50
2022-08-07T07:50:32.840Z,64.20
2022-08-07T07:53:20.428Z,63.30
2022-08-07T07:56:00.423Z,62.80
2022-08-07T07:58:40.280Z,62.50
2022-08-07T08:02:01.962Z,59.40
2022-08-07T08:04:09.366Z,58.20
2022-08-07T08:06:40.767Z,58.30
2022-08-07T08:09:22.751Z,57.30
2022-08-07T08:12:02.986Z,56.30
2022-08-07T08:14:34.468Z,54.70
2022-08-07T08:17:56.615Z,54.60
2022-08-07T08:20:19.750Z,54.90
2022-08-07T08:23:09.315Z,53.00
2022-08-07T08:25:58.749Z,50.90
2022-08-07T08:28:38.448Z,50.90
2022-08-07T08:31:16.388Z,49.80
2022-08-07T08:34:01.576Z,48.80
2022-08-07T08:36:36.532Z,48.40
2022-08-07T08:39:09.703Z,47.80
2022-08-07T08:41:58.788Z,46.90
2022-08-07T08:44:37.276Z,46.80
2022-08-07T08:47:21.070Z,46.70
2022-08-07T08:50:04.937Z,47.80
2022-08-07T08:52:40.785Z,48.00
2022-08-07T08:55:54.993Z,47.30
2022-08-07T08:58:28.314Z,47.20
2022-08-07T09:01:14.548Z,47.90
2022-08-07T09:03:55.384Z,46.50
2022-08-07T09:06:40.412Z,46.30
2022-08-07T09:09:33.222Z,47.60
2022-08-07T09:12:30.365Z,48.10
2022-08-07T09:16:23.995Z,49.50
2022-08-07T09:18:23.455Z,47.60
2022-08-07T09:21:02.585Z,48.00
2022-08-07T09:24:33.476Z,48.30
2022-08-07T09:26:47.725Z,47.50
2022-08-07T09:30:03.322Z,49.10
2022-08-07T09:32:43.531Z,49.90
2022-08-07T09:36:05.187Z,48.70
2022-08-07T09:38:23.281Z,49.00
2022-08-07T09:41:10.478Z,47.80
2022-08-07T09:44:06.821Z,49.60
2022-08-07T09:47:52.544Z,50.00
2022-08-07T09:50:18.895Z,50.10
2022-08-07T09:52:51.892Z,50.30
2022-08-07T09:56:02.674Z,50.40
2022-08-07T09:58:48.686Z,51.00
2022-08-07T10:01:52.123Z,52.40
2022-08-07T10:04:38.013Z,51.40
2022-08-07T10:07:25.969Z,51.40
2022-08-07T10:10:12.121Z,51.70
2022-08-07T10:13:55.086Z,52.10
2022-08-07T10:16:23.023Z,53.10
2022-08-07T10:19:30.183Z,53.10
2022-08-07T10:22:16.910Z,53.20
2022-08-07T10:25:14.399Z,54.10
2022-08-07T10:27:53.650Z,55.20
2022-08-07T10:30:34.805Z,54.30
2022-08-07T10:33:23.660Z,53.40
2022-08-07T10:36:29.782Z,53.70
2022-08-07T10:39:05.558Z,54.10
2022-08-07T10:41:51.429Z,54.80
2022-08-07T10:44:38.451Z,54.30
2022-08-07T10:47:17.766Z,54.40
2022-08-07T10:49:51.809Z,55.90
2022-08-07T10:52:31.730Z,54.40
2022-08-07T10:55:32.515Z,55.20
2022-08-07T10:58:10.939Z,54.40
2022-08-07T11:00:56.136Z,54.10
2022-08-07T11:03:37.371Z,54.70
2022-08-07T11:06:21.989Z,55.00
2022-08-07T11:08:58.049Z,54.80
2022-08-07T11:11:35.649Z,54.90
2022-08-07T11:14:45.969Z,55.10
2022-08-07T11:17:07.319Z,55.30
2022-08-07T11:19:43.035Z,55.00
2022-08-07T11:22:26.642Z,56.20
2022-08-07T11:25:12.501Z,55.20
2022-08-07T11:28:04.004Z,55.80
2022-08-07T11:30:50.982Z,55.50
2022-08-07T11:33:58.483Z,55.30
2022-08-07T11:36:35.249Z,55.00
2022-08-07T11:39:19.392Z,54.30
2022-08-07T11:42:01.760Z,55.20
2022-08-07T11:44:51.979Z,55.10
2022-08-07T11:47:39.185Z,55.40
2022-08-07T11:50:35.199Z,55.50
2022-08-07T11:53:15.720Z,56.20
2022-08-07T11:56:10.056Z,56.00
2022-08-07T11:59:00.855Z,56.40
2022-08-07T12:01:59.571Z,56.20
2022-08-07T12:04:43.274Z,54.90
2022-08-07T12:07:27.235Z,56.10
2022-08-07T12:10:13.892Z,55.90
2022-08-07T12:12:49.041Z,55.80
2022-08-07T12:15:46.231Z,56.90
2022-08-07T12:18:22.370Z,56.90
2022-08-07T12:21:10.650Z,56.30
2022-08-07T12:24:05.326Z,56.30
2022-08-07T12:26:46.777Z,57.60
2022-08-07T12:29:37.242Z,58.10
2022-08-07T12:32:15.374Z,58.40
2022-08-07T12:34:49.361Z,58.20
2022-08-07T12:37:28.553Z,58.90
2022-08-07T12:40:46.709Z,59.30
2022-08-07T12:43:10.559Z,59.80
2022-08-07T12:45:50.268Z,60.60
2022-08-07T12:48:41.417Z,60.50
2022-08-07T12:51:20.592Z,60.80
2022-08-07T12:54:24.139Z,60.20
2022-08-07T12:56:51.534Z,60.10
2022-08-07T12:59:32.953Z,60.40
2022-08-07T13:02:49.907Z,60.70
2022-08-07T13:06:02.653Z,60.30
2022-08-07T13:08:35.038Z,60.90
2022-08-07T13:11:24.737Z,61.40
2022-08-07T13:14:03.222Z,61.50
2022-08-07T13:16:38.688Z,61.60
2022-08-07T13:19:25.267Z,61.70
2022-08-07T13:22:27.515Z,61.80
2022-08-07T13:25:00.136Z,61.80
2022-08-07T13:28:12.531Z,61.90
2022-08-07T13:30:41.093Z,61.80
2022-08-07T13:34:31.487Z,61.90
2022-08-07T13:36:17.870Z,61.90
2022-08-07T13:38:56.263Z,62.40
2022-08-07T13:41:41.689Z,62.50
2022-08-07T13:44:13.121Z,62.30
2022-08-07T13:46:49.491Z,61.90
2022-08-07T13:50:35.063Z,62.20
2022-08-07T13:52:32.583Z,62.00
2022-08-07T13:55:07.715Z,62.50
2022-08-07T13:57:51.632Z,62.90
2022-08-07T14:00:50.652Z,62.70
2022-08-07T14:03:28.978Z,63.30
2022-08-07T14:06:14.967Z,63.60
2022-08-07T14:08:48.611Z,63.60
2022-08-07T14:11:26.950Z,63.90
2022-08-07T14:14:17.755Z,64.10
2022-08-07T14:16:50.066Z,63.90
2022-08-07T14:20:39.997Z,64.10
2022-08-07T14:22:41.321Z,64.50
2022-08-07T14:25:10.977Z,63.40
2022-08-07T14:28:12.668Z,63.50
2022-08-07T14:30:34.899Z,63.40
2022-08-07T14:33:07.410Z,63.10
2022-08-07T14:38:30.906Z,63.40
2022-08-07T14:41:03.800Z,63.30
2022-08-07T14:43:58.983Z,63.40
2022-08-07T14:46:32.074Z,63.40
2022-08-07T14:49:55.844Z,63.70
2022-08-07T14:52:03.843Z,64.00
2022-08-07T14:54:42.009Z,64.60
2022-08-07T15:00:06.926Z,65.40
2022-08-07T15:02:57.047Z,65.20
2022-08-07T15:05:26.809Z,65.40
2022-08-07T15:07:56.489Z,65.40
2022-08-07T15:10:29.981Z,65.60
2022-08-07T15:13:06.255Z,66.00
2022-08-07T15:15:52.257Z,65.50
2022-08-07T15:18:34.044Z,66.10
2022-08-07T15:26:56.533Z,66.20
2022-08-07T15:30:09.266Z,66.00
2022-08-07T15:32:39.136Z,66.40
2022-08-07T15:35:16.903Z,66.30
2022-08-07T15:38:18.337Z,65.80
2022-08-07T15:40:39.456Z,66.40
2022-08-07T15:43:33.552Z,66.20
2022-08-07T15:46:32.301Z,65.70
2022-08-07T15:49:17.431Z,65.90
2022-08-07T15:54:40.828Z,66.80
2022-08-07T15:57:27.828Z,67.20
2022-08-07T16:00:04.422Z,67.40
2022-08-07T16:02:40.747Z,67.30
2022-08-07T16:05:15.313Z,67.30
2022-08-07T16:08:30.942Z,67.60
2022-08-07T16:10:38.695Z,68.00
2022-08-07T16:13:58.488Z,67.30
2022-08-07T16:16:47.755Z,67.30
2022-08-07T16:20:04.168Z,67.30
2022-08-07T16:22:56.539Z,66.90
2022-08-07T16:25:56.091Z,67.20
2022-08-07T16:30:06.878Z,67.50
2022-08-07T16:32:00.648Z,68.10
2022-08-07T16:34:48.365Z,69.50
2022-08-07T16:38:09.723Z,69.40
2022-08-07T16:41:16.037Z,69.40
2022-08-07T16:44:47.419Z,69.90
2022-08-07T16:47:37.185Z,70.70
2022-08-07T16:50:37.055Z,72.00
2022-08-07T16:54:01.644Z,72.40
2022-08-07T16:56:50.081Z,72.50
2022-08-07T16:59:45.626Z,74.70
2022-08-07T17:02:53.372Z,74.80
2022-08-07T17:06:19.636Z,74.00
2022-08-07T17:09:08.687Z,73.70
2022-08-07T17:12:04.960Z,73.60
2022-08-07T17:14:33.458Z,76.70
2022-08-07T17:17:12.132Z,79.50
2022-08-07T17:20:01.084Z,79.50
2022-08-07T17:22:38.228Z,81.00
2022-08-07T17:25:16.793Z,82.30
2022-08-07T17:27:53.058Z,83.10
2022-08-07T17:30:29.580Z,83.00
2022-08-07T17:34:08.747Z,83.10
2022-08-07T17:36:03.661Z,85.00
2022-08-07T17:38:40.614Z,86.10
2022-08-07T17:42:02.066Z,85.70
2022-08-07T17:44:34.000Z,85.90
2022-08-07T17:47:16.916Z,85.40
2022-08-07T17:50:02.477Z,85.70
2022-08-07T17:52:39.628Z,85.90
2022-08-07T17:55:12.746Z,86.60
2022-08-07T17:57:59.083Z,88.10
2022-08-07T18:00:34.139Z,89.30
2022-08-07T18:03:25.634Z,89.40
2022-08-07T18:06:02.209Z,90.10
2022-08-07T18:08:35.116Z,90.60
2022-08-07T18:11:53.648Z,91.20
2022-08-07T18:14:07.218Z,91.50
2022-08-07T18:16:57.496Z,92.00
2022-08-07T18:21:08.112Z,92.60
2022-08-07T18:22:32.210Z,92.90
2022-08-07T18:25:24.157Z,93.30
2022-08-07T18:28:34.184Z,93.80
2022-08-07T18:31:05.593Z,94.40
2022-08-07T18:34:05.741Z,95.40
2022-08-07T18:38:55.882Z,95.70
2022-08-07T18:40:40.527Z,96.20
2022-08-07T18:43:36.832Z,96.20
2022-08-07T18:46:27.303Z,96.70
2022-08-07T18:50:31.640Z,97.80
2022-08-07T18:52:52.499Z,98.50
2022-08-07T18:55:40.645Z,99.40
2022-08-07T18:58:31.497Z,99.90
2022-08-07T19:02:18.793Z,99.90
2022-08-07T19:04:09.809Z,99.90
2022-08-07T19:06:51.376Z,99.90
2022-08-07T19:09:55.512Z,99.90
2022-08-07T19:12:20.548Z,99.90
2022-08-07T19:15:22.869Z,99.90
2022-08-07T19:18:15.708Z,99.90
2022-08-07T19:21:09.109Z,99.90
2022-08-07T19:23:57.900Z,99.90
2022-08-07T19:26:55.529Z,99.90
2022-08-07T19:31:04.231Z,99.90
2022-08-07T19:32:27.742Z,99.90
2022-08-07T19:35:14.597Z,99.90
2022-08-07T19:37:56.778Z,99.90
2022-08-07T19:40:31.090Z,99.90
2022-08-07T19:43:08.631Z,99.90
2022-08-07T19:46:05.821Z,99.90
2022-08-07T19:48:42.834Z,99.90
2022-08-07T19:51:20.626Z,99.90
2022-08-07T19:54:33.334Z,99.90
2022-08-07T19:58:01.511Z,99.90
2022-08-07T19:59:53.382Z,99.90
2022-08-07T20:02:30.831Z,99.90
2022-08-07T20:05:03.309Z,99.90
2022-08-07T20:07:47.523Z,99.90
2022-08-07T20:10:35.700Z,99.90
2022-08-07T20:13:22.684Z,99.90
2022-08-07T20:15:54.043Z,99.90
2022-08-07T20:18:32.382Z,99.90
2022-08-07T20:21:20.836Z,99.90
2022-08-07T20:23:57.891Z,99.90
2022-08-07T20:26:38.673Z,99.90
2022-08-07T20:29:48.146Z,99.90
2022-08-07T20:32:11.629Z,99.90
2022-08-07T20:34:55.471Z,99.90
2022-08-07T20:37:29.879Z,99.90
2022-08-07T20:40:05.313Z,99.90
2022-08-07T20:42:56.261Z,99.90
2022-08-07T20:45:33.556Z,99.90
2022-08-07T20:48:29.022Z,99.90
2022-08-07T20:51:03.350Z,99.90
2022-08-07T20:54:03.850Z,99.90
2022-08-07T20:56:26.581Z,99.90
2022-08-07T20:58:58.675Z,99.90
2022-08-07T21:01:29.663Z,99.90
2022-08-07T21:04:22.055Z,99.90
2022-08-07T21:06:57.427Z,99.90
2022-08-07T21:09:51.716Z,99.90
2022-08-07T21:12:25.962Z,99.90
2022-08-07T21:14:59.657Z,99.90
2022-08-07T21:18:03.163Z,99.90
2022-08-07T21:20:30.374Z,99.90
2022-08-07T21:23:09.014Z,99.90
2022-08-07T21:25:52.266Z,99.90
2022-08-07T21:28:48.516Z,99.90
2022-08-07T21:31:49.987Z,99.90
2022-08-07T21:34:22.373Z,99.90
2022-08-07T21:37:00.754Z,99.90
2022-08-07T21:39:45.292Z,99.90
2022-08-07T21:42:40.894Z,99.90
2022-08-07T21:46:05.086Z,99.90
2022-08-07T21:48:28.281Z,99.90
2022-08-07T21:51:08.106Z,99.90
2022-08-07T21:53:53.692Z,99.90
2022-08-07T21:56:47.064Z,99.90
2022-08-07T21:59:31.497Z,99.90
2022-08-07T22:02:27.057Z,99.90
2022-08-07T22:05:00.007Z,99.90
2022-08-07T22:07:48.590Z,99.90
2022-08-07T22:10:24.694Z,99.90
2022-08-07T22:12:59.036Z,99.90
2022-08-07T22:16:43.509Z,99.90
2022-08-07T22:18:25.683Z,99.90
2022-08-07T22:20:59.696Z,99.90
2022-08-07T22:23:40.235Z,99.90
2022-08-07T22:26:21.630Z,99.90
2022-08-07T22:29:00.343Z,99.90
2022-08-07T22:31:55.933Z,99.90
2022-08-07T22:34:49.725Z,99.90
2022-08-07T22:38:03.286Z,99.90
2022-08-07T22:40:27.076Z,99.90
2022-08-07T22:43:02.829Z,99.90
2022-08-07T22:46:21.366Z,99.90
2022-08-07T22:48:55.974Z,99.90
2022-08-07T22:51:52.192Z,99.90
2022-08-07T22:54:37.923Z,99.90
2022-08-07T22:57:17.104Z,99.90
2022-08-07T22:59:57.523Z,99.90
2022-08-07T23:02:35.969Z,99.90
2022-08-07T23:06:14.966Z,99.90
2022-08-07T23:08:47.867Z,99.90
2022-08-07T23:11:44.217Z,99.90
2022-08-07T23:14:37.755Z,99.90
2022-08-07T23:17:27.705Z,99.90
2022-08-07T23:20:51.620Z,99.90
2022-08-07T23:24:06.625Z,99.90
2022-08-07T23:26:55.096Z,99.90
2022-08-07T23:30:38.080Z,99.90
2022-08-07T23:34:23.385Z,99.90
2022-08-07T23:36:04.767Z,99.90
2022-08-07T23:38:54.499Z,99.90
2022-08-07T23:42:01.371Z,99.90
2022-08-07T23:45:05.670Z,99.90
2022-08-07T23:48:02.693Z,99.90
2022-08-07T23:50:37.875Z,99.90
2022-08-07T23:53:51.133Z,99.90
2022-08-07T23:56:21.103Z,99.90
2022-08-07T23:59:00.172Z,99.90
